Terminal Aerodrome Forecast
Issued by NWS Lake Charles, LA

Home | Current Version | Previous Version | Text Only | Print | Product List | Glossary On
Versions: 1 2 3 4 5 6 7 8 9 10 11 12 13 14 15 16 17
000
FTUS44 KLCH 171700
TAFARA
TAF
KARA 171730Z 1718/1818 VRB05KT P6SM VCTS SCT025CB
     FM180000 21003KT P6SM BKN200
     FM181300 VRB03KT P6SM SCT015=

USA.gov is the U.S. government's official web portal to all federal, state and local government web resources and services.